Accueil
METAR-TAF:

METAR-TAF

Aéroports :

Decimomannu, Italie

latitude: 39-21N, longitude: 008-58E, altitude: 29 m

Observation

Le bulletin a été fait il y a 1 heure et 15 minutes, à 13:55 UTC
Vent 4 kt de sud/sud-est
Température 18°C
Humidité 59%
Pression 1018 hPa
Visibilité 10 km ou plus
Quelques nuages à une hauteur de 2000 ft

METAR: LIED 261355Z 16004KT 9999 FEW020 18/10 Q1018 RMK FEW VIS MIN 9999 WIND THR35 16004KT WIND THR17 /////KT BLU

Heure: 16:10 (15:10 UTC)

Prévision

Le bulletin a été fait il y a 1 heure et 10 minutes, à 14:00 UTC
Prévision valable du 26 à 15 UTC au 26 à 24 UTC
Vent 6 kt de sud-est
Visibilité 10 km ou plus
Quelques nuages à une hauteur de 2000 ft
Evoluant progressivement
du 26 à 19 UTC au 26 à 21 UTC
Visibilité: 5000 m
Nuages épars à une hauteur de 500 ft
brume

TAF: LIED 261400Z 2615/2624 13006KT 9999 FEW020 BECMG 2619/2621 5000 BR SCT005

Observations et prévisions météorologiques de plus de 4000 aéroports (messages METAR et TAF).

Les stations disponibles sont représentées par des disques jaunes et rouges sur la carte.

Passer la souris dessus pour voir le nom de la station.

Cliquer dessus pour voir les observations et prévisions météorologiques.

Pour changer de carte: cliquez sur les boutons verts avec une croix noire pour zoomer, sur le bouton vert avec un tiret pour effectuer un zoom arrière, ou sur les flèches vertes pour les cartes adjacentes.


METAR-TAF: